Time;durP1;ratioP1;P1;durP2;ratioP2;P2;SDS_P1;SDS_P2;PMS_P1;PMS_P2;Temp;Humidity;BMP_temperature;BMP_pressure;BME280_temperature;BME280_humidity;BME280_pressure;Samples;Min_cycle;Max_cycle;Signal;HPM_P1;HPM_P2
2022/08/01 00:00:50;;;;;;;8.25;5.25;;;;;;;12.95;76.36;100982.56;1628333;86;21128;-92
2022/08/01 00:03:17;;;;;;;9.10;4.85;;;;;;;12.95;76.49;100982.97;1627137;87;21591;-90
2022/08/01 00:05:45;;;;;;;9.08;4.42;;;;;;;12.94;76.64;100979.45;1637974;86;21105;-91
2022/08/01 00:08:12;;;;;;;7.25;4.50;;;;;;;12.94;76.76;100979.45;1580680;89;21167;-91
2022/08/01 00:10:38;;;;;;;6.75;3.92;;;;;;;12.95;76.87;100981.64;1605561;88;21770;-91
2022/08/01 00:13:05;;;;;;;7.10;4.35;;;;;;;12.94;77.03;100983.41;1676550;83;22107;-91
2022/08/01 00:15:32;;;;;;;8.25;4.40;;;;;;;12.94;77.06;100976.80;1743456;81;21630;-90
2022/08/01 00:17:59;;;;;;;10.60;4.45;;;;;;;12.94;77.17;100974.59;1742363;82;21667;-89
2022/08/01 00:20:25;;;;;;;11.50;3.83;;;;;;;12.93;77.29;100979.00;1730690;82;21749;-91
2022/08/01 00:22:52;;;;;;;11.85;4.33;;;;;;;12.92;77.32;100979.84;1765684;78;21820;-90
2022/08/01 00:25:21;;;;;;;7.10;4.15;;;;;;;12.92;77.54;100971.92;1772478;79;21074;-90
2022/08/01 00:27:48;;;;;;;8.33;4.22;;;;;;;12.90;77.63;100964.84;1746043;80;21633;-90
2022/08/01 00:30:14;;;;;;;4.53;3.55;;;;;;;12.91;77.68;100968.80;1774971;79;21023;-91
2022/08/01 00:32:42;;;;;;;8.78;3.72;;;;;;;12.89;77.72;100966.56;1818401;77;21106;-90
2022/08/01 00:35:10;;;;;;;6.17;3.67;;;;;;;12.89;77.85;100960.41;1815598;77;22592;-91
2022/08/01 00:37:36;;;;;;;5.90;4.37;;;;;;;12.88;77.96;100958.20;1772753;79;21059;-90
2022/08/01 00:40:04;;;;;;;5.85;3.70;;;;;;;12.87;78.00;100959.05;1807854;79;21074;-91
2022/08/01 00:42:31;;;;;;;6.12;3.90;;;;;;;12.87;78.00;100955.53;1849777;77;21351;-91
2022/08/01 00:44:58;;;;;;;7.42;3.85;;;;;;;12.85;78.04;100951.53;1798327;78;21049;-91
2022/08/01 00:47:25;;;;;;;6.33;4.10;;;;;;;12.85;78.12;100958.13;1811235;77;21778;-90
2022/08/01 00:49:52;;;;;;;7.08;4.20;;;;;;;12.83;78.12;100956.78;1811144;77;21051;-90
2022/08/01 00:52:19;;;;;;;4.50;3.20;;;;;;;12.82;78.26;100955.45;1836286;77;21085;-91
2022/08/01 00:54:47;;;;;;;4.92;3.25;;;;;;;12.79;78.29;100958.91;1825978;77;21620;-90
2022/08/01 00:57:17;;;;;;;5.70;3.85;;;;;;;12.79;78.43;100955.38;1810568;77;21539;-89
2022/08/01 00:59:44;;;;;;;5.97;3.75;;;;;;;12.77;78.55;100944.78;1807967;77;21863;-91
2022/08/01 01:02:10;;;;;;;5.65;3.87;;;;;;;12.77;78.59;100947.42;1816611;77;21121;-91
2022/08/01 01:04:40;;;;;;;6.65;3.30;;;;;;;12.77;78.67;100947.86;1827130;77;21066;-90
2022/08/01 01:07:32;;;;;;;7.72;3.65;;;;;;;12.76;78.81;100946.06;1841165;77;21026;-92
2022/08/01 01:10:06;;;;;;;8.43;3.75;;;;;;;12.76;78.89;100949.63;1819580;77;21085;-91
2022/08/01 01:12:45;;;;;;;8.53;3.65;;;;;;;12.74;78.99;100952.64;1821392;77;21948;-90
2022/08/01 01:15:23;;;;;;;6.42;3.37;;;;;;;12.74;79.05;100950.44;1827155;77;21094;-91
2022/08/01 01:17:57;;;;;;;5.33;3.27;;;;;;;12.74;79.12;100950.44;1812901;77;21078;-91
2022/08/01 01:20:37;;;;;;;8.35;3.75;;;;;;;12.73;79.15;100946.91;1797257;78;21244;-90
2022/08/01 01:23:12;;;;;;;5.85;3.08;;;;;;;12.74;79.24;100950.44;1763498;79;21098;-91
2022/08/01 01:25:44;;;;;;;6.75;3.10;;;;;;;12.73;79.31;100947.35;1753746;81;21792;-91
2022/08/01 01:28:22;;;;;;;9.73;3.70;;;;;;;12.73;79.40;100945.59;1788472;79;21552;-91
2022/08/01 01:30:51;;;;;;;4.75;2.83;;;;;;;12.71;79.46;100942.47;1761640;80;21596;-91
2022/08/01 01:33:18;;;;;;;4.53;3.02;;;;;;;12.72;79.52;100946.44;1772860;79;21073;-91
2022/08/01 01:35:51;;;;;;;3.83;2.83;;;;;;;12.73;79.64;100948.67;1744651;80;21106;-91
2022/08/01 01:38:24;;;;;;;4.75;2.80;;;;;;;12.74;79.73;100942.51;1772741;79;22027;-92
2022/08/01 01:40:51;;;;;;;4.87;3.03;;;;;;;12.75;79.80;100942.98;1740086;80;21086;-92
2022/08/01 01:43:18;;;;;;;4.47;3.02;;;;;;;12.76;79.89;100934.18;1749963;80;21115;-92
2022/08/01 01:45:46;;;;;;;3.80;2.70;;;;;;;12.66;79.91;100916.39;1764836;80;21031;-92
2022/08/01 01:48:18;;;;;;;4.65;2.92;;;;;;;12.76;79.99;100939.06;1740337;80;21057;-91
2022/08/01 01:50:51;;;;;;;5.22;2.98;;;;;;;12.77;80.03;100935.54;1757972;80;21804;-90
2022/08/01 01:53:19;;;;;;;3.95;2.90;;;;;;;12.77;80.15;100932.02;1764608;80;21066;-91
2022/08/01 01:55:50;;;;;;;4.37;2.65;;;;;;;12.77;80.18;100933.34;1770600;79;21102;-92
2022/08/01 01:58:18;;;;;;;5.45;2.42;;;;;;;12.76;80.20;100930.22;1760083;80;21621;-91
2022/08/01 02:00:45;;;;;;;5.37;2.80;;;;;;;12.76;80.35;100928.90;1730253;81;21018;-91
2022/08/01 02:03:12;;;;;;;8.98;2.58;;;;;;;12.77;80.38;100930.69;1756729;80;21824;-91
2022/08/01 02:05:39;;;;;;;6.05;3.12;;;;;;;12.77;80.44;100930.69;1766499;80;21117;-91
2022/08/01 02:08:06;;;;;;;6.33;3.12;;;;;;;12.77;80.44;100930.25;1775681;80;21581;-92
2022/08/01 02:10:33;;;;;;;7.03;3.17;;;;;;;12.77;80.40;100928.94;1756960;80;21059;-91
2022/08/01 02:13:04;;;;;;;3.80;2.58;;;;;;;12.77;80.43;100932.89;1744938;80;21971;-90
2022/08/01 02:15:33;;;;;;;3.47;2.50;;;;;;;12.77;80.56;100930.25;1720898;80;21771;-92
2022/08/01 02:18:01;;;;;;;3.55;2.60;;;;;;;12.78;80.59;100933.78;1751078;81;21667;-91
2022/08/01 02:20:30;;;;;;;6.50;2.67;;;;;;;12.77;80.59;100939.50;1752909;80;21074;-91
2022/08/01 02:23:07;;;;;;;4.22;2.67;;;;;;;12.77;80.69;100936.86;1772580;80;21046;-91
2022/08/01 02:25:49;;;;;;;5.33;2.40;;;;;;;12.77;80.76;100940.82;1741232;80;21114;-92
2022/08/01 02:28:35;;;;;;;6.33;2.50;;;;;;;12.78;80.80;100935.09;1745493;80;21774;-90
2022/08/01 02:31:05;;;;;;;5.70;2.80;;;;;;;12.78;80.84;100931.14;1784329;80;21619;-91
2022/08/01 02:33:45;;;;;;;5.50;2.42;;;;;;;12.77;80.83;100934.22;1753102;80;21103;-91
2022/08/01 02:36:10;;;;;;;3.30;2.12;;;;;;;12.78;80.95;100933.78;1760510;80;21116;-90
2022/08/01 02:38:59;;;;;;;5.42;2.67;;;;;;;12.78;81.05;100929.41;1747841;80;21110;-91
2022/08/01 02:41:27;;;;;;;3.80;2.47;;;;;;;12.79;81.11;100927.65;1678222;84;21972;-86
2022/08/01 02:43:57;;;;;;;5.03;2.92;;;;;;;12.80;81.18;100933.38;1676854;85;21205;-86
2022/08/01 02:46:32;;;;;;;4.62;2.85;;;;;;;12.79;81.19;100929.84;1676479;85;21453;-86
2022/08/01 02:48:59;;;;;;;4.55;2.40;;;;;;;12.80;81.22;100934.28;1677446;85;21084;-85
2022/08/01 02:51:26;;;;;;;3.83;2.20;;;;;;;12.81;81.26;100932.09;1649459;86;21082;-86
2022/08/01 02:53:54;;;;;;;5.30;2.90;;;;;;;12.83;81.28;100930.80;1678172;84;21770;-89
2022/08/01 02:56:21;;;;;;;4.30;2.55;;;;;;;12.85;81.30;100938.32;1645110;86;21149;-90
2022/08/01 02:58:51;;;;;;;5.03;2.50;;;;;;;12.86;81.42;100933.92;1648393;86;21082;-90
2022/08/01 03:01:18;;;;;;;4.67;2.75;;;;;;;12.90;81.44;100935.78;1648784;85;21186;-91
2022/08/01 03:03:45;;;;;;;4.33;2.52;;;;;;;12.93;81.54;100936.73;1674852;85;21109;-86
2022/08/01 03:06:12;;;;;;;3.87;2.60;;;;;;;12.97;81.64;100933.28;1661856;85;21987;-89
2022/08/01 03:08:39;;;;;;;4.55;2.30;;;;;;;13.02;81.66;100938.19;1658262;85;21042;-86
2022/08/01 03:11:06;;;;;;;7.05;2.70;;;;;;;13.09;81.63;100939.64;1655043;85;21157;-86
2022/08/01 03:13:33;;;;;;;2.77;2.30;;;;;;;13.15;81.65;100931.81;1671349;85;21068;-90
2022/08/01 03:16:00;;;;;;;4.72;2.12;;;;;;;13.21;81.65;100932.82;1670403;85;21062;-90
2022/08/01 03:18:27;;;;;;;3.05;2.27;;;;;;;13.31;81.62;100935.66;1670217;85;21824;-86
2022/08/01 03:20:54;;;;;;;7.55;2.35;;;;;;;13.39;81.61;100936.22;1671812;85;21535;-86
2022/08/01 03:23:21;;;;;;;4.95;2.30;;;;;;;13.49;81.56;100928.44;1661078;85;21088;-85
2022/08/01 03:25:48;;;;;;;4.22;2.12;;;;;;;13.59;81.55;100924.65;1663929;85;21077;-85
2022/08/01 03:28:14;;;;;;;4.55;2.52;;;;;;;13.72;81.54;100928.37;1683259;84;21597;-85
2022/08/01 03:30:41;;;;;;;3.12;2.40;;;;;;;13.85;81.39;100929.45;1668889;84;22506;-90
2022/08/01 03:33:08;;;;;;;9.68;4.08;;;;;;;13.99;81.33;100922.58;1689349;83;21122;-85
2022/08/01 03:35:39;;;;;;;6.47;2.72;;;;;;;14.15;81.20;100922.77;1654186;83;21096;-85
2022/08/01 03:38:07;;;;;;;5.50;2.72;;;;;;;14.38;81.24;100924.41;1670314;84;21065;-85
2022/08/01 03:40:38;;;;;;;3.87;2.25;;;;;;;14.61;80.95;100923.82;1667563;84;21076;-86
2022/08/01 03:43:13;;;;;;;3.00;2.22;;;;;;;14.91;81.06;100924.58;1646585;85;21908;-85
2022/08/01 03:45:41;;;;;;;7.30;2.40;;;;;;;15.34;80.90;100930.28;1679161;84;21149;-91
2022/08/01 03:48:14;;;;;;;6.90;2.92;;;;;;;16.14;81.66;100930.82;1683222;85;21125;-85
2022/08/01 03:50:43;;;;;;;3.67;2.12;;;;;;;17.85;83.00;100931.17;1684175;84;21065;-86
2022/08/01 03:53:10;;;;;;;3.00;1.50;;;;;;;19.79;81.23;100928.25;1690086;84;21032;-91
2022/08/01 03:55:38;;;;;;;2.77;1.65;;;;;;;21.48;78.66;100926.45;1685713;83;21733;-92
2022/08/01 03:58:05;;;;;;;3.77;1.82;;;;;;;22.99;75.79;100927.45;1671837;85;21141;-86
2022/08/01 04:00:32;;;;;;;3.00;1.90;;;;;;;24.20;72.77;100926.13;1658781;85;21602;-91
2022/08/01 04:02:58;;;;;;;3.05;2.75;;;;;;;25.33;70.49;100921.36;1690416;84;21035;-92
2022/08/01 04:05:25;;;;;;;2.25;1.55;;;;;;;26.43;68.28;100925.98;1675376;83;21100;-85
2022/08/01 04:08:02;;;;;;;1.98;1.70;;;;;;;27.34;65.96;100921.05;1655437;84;21923;-91
2022/08/01 04:10:29;;;;;;;2.33;1.57;;;;;;;28.06;63.57;100919.29;1670169;85;21089;-85
2022/08/01 04:12:56;;;;;;;3.75;2.42;;;;;;;28.73;61.43;100921.64;1669018;84;21100;-85
2022/08/01 04:15:23;;;;;;;2.60;1.60;;;;;;;29.41;58.86;100922.81;1669283;85;21750;-92
2022/08/01 04:17:50;;;;;;;2.42;2.22;;;;;;;29.97;57.19;100917.22;1669305;85;21096;-86
2022/08/01 04:20:17;;;;;;;3.77;2.20;;;;;;;29.97;54.96;100921.29;1670778;83;21758;-92
2022/08/01 04:22:44;;;;;;;1.62;1.42;;;;;;;29.82;54.22;100921.63;1687458;84;21132;-85
2022/08/01 04:25:34;;;;;;;5.53;1.90;;;;;;;29.74;52.93;100902.17;1667024;84;21088;-86
2022/08/01 04:28:03;;;;;;;3.12;1.55;;;;;;;29.38;51.80;100924.80;1667195;84;21088;-89
2022/08/01 04:30:31;;;;;;;6.75;3.10;;;;;;;28.73;51.20;100923.00;1663088;84;21085;-85
2022/08/01 04:32:59;;;;;;;2.12;1.67;;;;;;;28.44;51.30;100923.89;1664928;86;22621;-86
2022/08/01 04:35:25;;;;;;;3.37;2.00;;;;;;;28.47;50.57;100926.43;1667924;84;21093;-91
2022/08/01 04:37:52;;;;;;;2.95;1.70;;;;;;;27.70;50.23;100925.81;1668564;84;21054;-90
2022/08/01 04:40:19;;;;;;;3.45;1.90;;;;;;;28.14;51.73;100927.06;1666160;84;21085;-88
2022/08/01 04:42:48;;;;;;;2.42;1.50;;;;;;;28.78;50.24;100931.31;1655999;84;21214;-88
2022/08/01 04:45:17;;;;;;;2.58;1.90;;;;;;;29.06;50.19;100929.97;1658148;85;21912;-87
2022/08/01 04:47:43;;;;;;;4.92;1.87;;;;;;;30.04;49.41;100926.30;1664936;86;22362;-88
2022/08/01 04:50:11;;;;;;;3.30;1.55;;;;;;;30.93;48.76;100923.73;1654152;86;21089;-85
2022/08/01 04:52:38;;;;;;;2.67;1.72;;;;;;;30.48;46.09;100931.65;1660745;86;21518;-86
2022/08/01 04:55:10;;;;;;;2.12;1.55;;;;;;;28.94;45.72;100926.01;1663962;86;21460;-84
2022/08/01 04:57:36;;;;;;;4.40;1.77;;;;;;;27.58;46.29;100928.59;1663362;86;21793;-86
2022/08/01 05:00:04;;;;;;;3.72;1.35;;;;;;;26.51;46.83;100938.70;1620528;86;21081;-85
2022/08/01 05:02:31;;;;;;;3.83;3.37;;;;;;;25.75;47.97;100933.83;1664384;85;21133;-85
2022/08/01 05:04:57;;;;;;;7.17;2.02;;;;;;;25.93;48.63;100932.79;1667482;86;21092;-91
2022/08/01 05:07:24;;;;;;;4.03;1.50;;;;;;;25.83;48.33;100934.91;1683439;83;21061;-86
2022/08/01 05:09:51;;;;;;;2.92;1.67;;;;;;;25.63;48.73;100936.08;1654024;86;21766;-86
2022/08/01 05:12:17;;;;;;;4.05;1.62;;;;;;;25.37;48.55;100936.01;1643304;87;21098;-85
2022/08/01 05:14:45;;;;;;;3.20;1.80;;;;;;;25.03;48.87;100938.91;1644111;86;21075;-92
2022/08/01 05:17:12;;;;;;;6.87;1.90;;;;;;;24.82;49.11;100942.70;1657310;86;21041;-85
2022/08/01 05:19:39;;;;;;;6.95;1.80;;;;;;;24.62;49.25;100941.95;1646510;85;21060;-85
2022/08/01 05:22:07;;;;;;;5.55;3.42;;;;;;;24.45;49.43;100937.05;1655676;84;21786;-84
2022/08/01 05:24:40;;;;;;;4.55;2.12;;;;;;;24.04;49.46;100937.80;1678106;85;21069;-84
2022/08/01 05:27:19;;;;;;;2.40;2.20;;;;;;;23.85;49.99;100945.93;1666794;86;21172;-91
2022/08/01 05:29:47;;;;;;;7.75;1.87;;;;;;;23.65;50.08;100947.80;1660396;86;21161;-91
2022/08/01 05:32:14;;;;;;;4.20;1.50;;;;;;;23.73;50.93;100947.12;1660416;86;21117;-90
2022/08/01 05:34:41;;;;;;;5.25;2.37;;;;;;;24.26;50.64;100941.21;1682507;85;21713;-84
2022/08/01 05:37:07;;;;;;;4.42;2.65;;;;;;;24.15;49.81;100946.02;1659275;86;21293;-84
2022/08/01 05:39:34;;;;;;;5.08;1.80;;;;;;;23.92;50.11;100948.01;1651956;84;21118;-85
2022/08/01 05:42:01;;;;;;;3.77;1.82;;;;;;;23.67;50.17;100940.57;1695906;82;21123;-84
2022/08/01 05:44:28;;;;;;;3.10;1.72;;;;;;;23.25;50.26;100942.06;1698746;82;21055;-84
2022/08/01 05:46:55;;;;;;;4.70;2.12;;;;;;;22.84;50.68;100946.14;1692876;82;21710;-87
2022/08/01 05:49:22;;;;;;;5.30;3.05;;;;;;;22.49;51.16;100937.05;1699631;82;21043;-87
2022/08/01 05:51:48;;;;;;;5.37;2.05;;;;;;;22.26;51.67;100940.66;1697928;83;21059;-87
2022/08/01 05:54:15;;;;;;;4.20;1.80;;;;;;;21.96;51.93;100919.34;1696279;83;21077;-87
2022/08/01 05:56:42;;;;;;;4.67;1.72;;;;;;;21.84;52.42;100929.38;1698630;83;21080;-88
2022/08/01 05:59:08;;;;;;;6.30;3.70;;;;;;;21.70;52.64;100927.43;1708931;82;21749;-86
2022/08/01 06:01:35;;;;;;;5.30;3.33;;;;;;;21.55;52.94;100933.48;1698484;82;21114;-90
2022/08/01 06:04:03;;;;;;;3.75;2.10;;;;;;;21.33;53.25;100932.92;1687575;83;21084;-87
2022/08/01 06:06:30;;;;;;;5.83;2.10;;;;;;;21.10;53.60;100918.58;1670675;83;21084;-83
2022/08/01 06:08:57;;;;;;;5.25;2.02;;;;;;;21.03;53.89;100936.09;1700352;81;21048;-90
2022/08/01 06:11:33;;;;;;;2.40;1.80;;;;;;;20.90;54.36;100944.76;1704624;82;21779;-93
2022/08/01 06:14:00;;;;;;;2.00;1.60;;;;;;;20.81;54.66;100932.39;1697014;84;21073;-91
2022/08/01 06:16:27;;;;;;;5.95;1.85;;;;;;;20.75;54.88;100937.37;1698217;84;21117;-89
2022/08/01 06:18:56;;;;;;;4.70;2.15;;;;;;;20.64;55.07;100935.30;1696564;84;21025;-85
2022/08/01 06:21:23;;;;;;;5.72;2.60;;;;;;;20.46;55.18;100939.52;1694843;82;21102;-89
2022/08/01 06:23:49;;;;;;;6.47;2.55;;;;;;;20.30;56.00;100931.69;1700000;84;21746;-93
2022/08/01 06:26:20;;;;;;;3.10;2.22;;;;;;;20.30;56.00;100931.69;1695390;84;21073;-92
2022/08/01 06:29:06;;;;;;;8.53;2.75;;;;;;;20.22;56.25;100937.59;1694126;83;21046;-92
2022/08/01 06:31:58;;;;;;;4.65;2.15;;;;;;;20.14;56.43;100941.70;1697157;84;21137;-92
2022/08/01 06:34:31;;;;;;;7.35;2.02;;;;;;;20.08;56.86;100936.39;1720536;83;21054;-92
2022/08/01 06:36:58;;;;;;;4.78;2.40;;;;;;;20.08;57.02;100936.39;1693794;84;21778;-92
2022/08/01 06:39:25;;;;;;;4.30;1.87;;;;;;;20.10;57.28;100933.28;1693133;84;21069;-92
2022/08/01 06:41:54;;;;;;;7.47;2.02;;;;;;;20.18;57.38;100935.87;1686677;83;21013;-92
2022/08/01 06:44:21;;;;;;;2.75;2.00;;;;;;;20.28;57.50;100933.96;1684547;84;21112;-92
2022/08/01 06:47:33;;;;;;;5.05;2.15;;;;;;;20.35;57.48;100932.53;1684702;85;37083;-92
2022/08/01 06:50:00;;;;;;;6.00;2.30;;;;;;;20.48;57.27;100932.39;1683923;85;21917;-85
2022/08/01 06:52:27;;;;;;;4.50;2.12;;;;;;;20.54;57.01;100930.95;1685646;84;21082;-84
2022/08/01 06:54:56;;;;;;;4.15;2.00;;;;;;;20.57;56.84;100930.90;1683811;84;21520;-84
2022/08/01 06:57:23;;;;;;;3.65;1.92;;;;;;;20.61;56.83;100931.78;1686198;84;21594;-85
2022/08/01 06:59:55;;;;;;;6.90;2.98;;;;;;;20.67;56.93;100929.05;1684833;84;21049;-84
2022/08/01 07:02:23;;;;;;;8.93;3.33;;;;;;;20.72;56.82;100936.09;1685241;84;23175;-84
2022/08/01 07:04:50;;;;;;;2.35;1.70;;;;;;;20.80;56.83;100935.08;1686138;84;21113;-84
2022/08/01 07:07:17;;;;;;;9.68;1.70;;;;;;;20.86;56.79;100931.87;1686215;84;21085;-85
2022/08/01 07:09:43;;;;;;;7.35;2.45;;;;;;;21.01;56.88;100933.91;1686152;84;21090;-85
2022/08/01 07:12:11;;;;;;;2.30;1.60;;;;;;;21.10;56.50;100939.99;1666945;84;21274;-85
2022/08/01 07:14:38;;;;;;;4.62;2.12;;;;;;;21.34;56.35;100931.11;1686425;83;22826;-85
2022/08/01 07:17:05;;;;;;;3.22;2.35;;;;;;;21.34;56.35;100931.11;1691260;83;21617;-84
2022/08/01 07:19:31;;;;;;;8.03;3.42;;;;;;;21.50;56.39;100932.67;1682115;84;21088;-84
2022/08/01 07:21:58;;;;;;;6.53;1.92;;;;;;;21.66;55.41;100939.99;1687514;83;21077;-92
2022/08/01 07:24:28;;;;;;;4.50;1.57;;;;;;;21.70;55.11;100935.00;1639860;86;21130;-91
2022/08/01 07:27:29;;;;;;;4.08;1.50;;;;;;;21.84;55.04;100938.75;1654813;86;21741;-92
2022/08/01 07:29:57;;;;;;;5.60;1.87;;;;;;;21.91;54.41;100919.44;1654815;86;21083;-92
2022/08/01 07:32:23;;;;;;;4.17;1.70;;;;;;;22.07;54.12;100931.64;1663582;85;21184;-84
2022/08/01 07:34:51;;;;;;;6.00;1.35;;;;;;;22.07;54.02;100898.56;1685614;84;21109;-83
2022/08/01 07:37:18;;;;;;;4.78;1.87;;;;;;;22.43;53.50;100931.83;1687972;84;21077;-84
2022/08/01 07:39:45;;;;;;;2.80;1.40;;;;;;;22.57;53.38;100926.16;1694454;83;23083;-84
2022/08/01 07:42:12;;;;;;;2.12;1.40;;;;;;;22.73;53.03;100929.83;1687468;84;21152;-83
2022/08/01 07:44:39;;;;;;;5.58;1.55;;;;;;;22.83;52.86;100928.72;1684193;85;21093;-83
2022/08/01 07:47:06;;;;;;;4.37;2.58;;;;;;;22.99;52.53;100926.55;1681309;85;21123;-83
2022/08/01 07:49:33;;;;;;;4.47;1.47;;;;;;;23.17;52.17;100926.14;1682888;85;21066;-84
2022/08/01 07:52:00;;;;;;;4.12;1.50;;;;;;;23.17;51.58;100917.22;1654234;86;22728;-84
2022/08/01 07:54:28;;;;;;;4.50;1.35;;;;;;;23.11;51.46;100920.93;1652757;85;21129;-84
2022/08/01 07:56:56;;;;;;;5.65;1.55;;;;;;;23.07;51.55;100916.56;1673687;83;21082;-84
2022/08/01 07:59:23;;;;;;;5.97;3.12;;;;;;;23.07;51.19;100917.44;1673579;85;21139;-84
2022/08/01 08:01:51;;;;;;;8.50;1.82;;;;;;;22.91;51.17;100911.97;1674228;84;21705;-84
2022/08/01 08:04:18;;;;;;;4.22;1.50;;;;;;;22.93;51.20;100919.52;1674182;85;21753;-84
2022/08/01 08:06:47;;;;;;;5.53;1.75;;;;;;;22.96;51.05;100919.92;1674077;85;21104;-84
2022/08/01 08:09:15;;;;;;;10.08;2.12;;;;;;;22.95;51.22;100923.05;1673749;85;21097;-84
2022/08/01 08:11:44;;;;;;;6.20;1.72;;;;;;;23.02;51.16;100919.30;1673478;85;21076;-84
2022/08/01 08:14:14;;;;;;;3.55;1.45;;;;;;;23.06;51.01;100924.17;1666569;85;21644;-84
2022/08/01 08:16:42;;;;;;;3.30;1.42;;;;;;;23.02;50.72;100926.02;1643443;85;22463;-84
2022/08/01 08:19:09;;;;;;;5.15;1.50;;;;;;;22.91;50.86;100926.73;1672984;85;21069;-84
2022/08/01 08:21:36;;;;;;;3.83;1.85;;;;;;;22.91;50.95;100924.05;1672451;85;21720;-84
2022/08/01 08:24:23;;;;;;;4.60;1.62;;;;;;;22.93;50.50;100924.89;1645484;85;21100;-84
2022/08/01 08:26:55;;;;;;;11.78;2.30;;;;;;;22.85;50.37;100921.52;1673582;85;21103;-84
2022/08/01 08:29:22;;;;;;;3.67;1.50;;;;;;;22.71;50.15;100924.05;1672724;84;21762;-83
2022/08/01 08:31:50;;;;;;;3.55;1.87;;;;;;;22.70;50.08;100926.30;1644115;85;21096;-84
2022/08/01 08:34:17;;;;;;;9.00;1.80;;;;;;;22.72;50.02;100918.22;1668543;85;21072;-83
2022/08/01 08:36:44;;;;;;;3.50;1.50;;;;;;;22.80;50.06;100928.78;1672933;85;21052;-83
2022/08/01 08:39:11;;;;;;;5.03;1.50;;;;;;;22.85;50.00;100925.54;1672578;85;21098;-84
2022/08/01 08:41:43;;;;;;;5.00;1.30;;;;;;;22.90;49.88;100932.56;1671999;85;21762;-84
2022/08/01 08:44:13;;;;;;;7.92;1.70;;;;;;;22.95;49.97;100927.55;1681460;83;21033;-84
2022/08/01 08:46:44;;;;;;;4.45;1.47;;;;;;;23.04;49.78;100932.73;1672537;85;21621;-84
2022/08/01 08:49:11;;;;;;;6.47;1.45;;;;;;;23.08;49.53;100929.92;1673741;85;21610;-84
2022/08/01 08:51:40;;;;;;;3.47;2.90;;;;;;;23.12;49.48;100926.70;1672739;85;21449;-84
2022/08/01 08:54:07;;;;;;;6.25;1.50;;;;;;;23.18;49.23;100927.02;1672689;84;21822;-84
2022/08/01 08:56:36;;;;;;;6.60;1.75;;;;;;;23.13;49.07;100921.77;1673931;85;21055;-84
2022/08/01 08:59:16;;;;;;;4.85;1.37;;;;;;;23.12;48.82;100923.15;1674388;85;21090;-84
2022/08/01 09:01:45;;;;;;;4.80;2.35;;;;;;;23.01;48.79;100922.92;1672145;85;21073;-84
2022/08/01 09:04:12;;;;;;;6.08;1.60;;;;;;;22.97;48.82;100926.58;1675034;85;21077;-84
2022/08/01 09:06:38;;;;;;;1.77;1.20;;;;;;;22.91;48.68;100928.95;1675021;85;21749;-84
2022/08/01 09:09:09;;;;;;;5.70;1.90;;;;;;;22.84;48.66;100931.38;1673561;85;21084;-84
2022/08/01 09:11:37;;;;;;;3.40;2.47;;;;;;;22.85;48.43;100925.07;1672595;85;21029;-84
2022/08/01 09:14:29;;;;;;;3.05;1.30;;;;;;;22.86;48.30;100929.97;1673136;84;21081;-84
2022/08/01 09:17:07;;;;;;;2.92;1.32;;;;;;;22.89;48.30;100922.73;1673407;85;21077;-84
2022/08/01 09:19:42;;;;;;;2.87;1.60;;;;;;;22.94;48.18;100925.77;1671261;85;21762;-84
2022/08/01 09:22:13;;;;;;;2.60;1.55;;;;;;;22.98;48.00;100926.14;1679459;83;21432;-83
2022/08/01 09:24:42;;;;;;;4.78;1.40;;;;;;;23.06;47.89;100929.08;1675062;84;21631;-84
2022/08/01 09:27:20;;;;;;;5.05;1.30;;;;;;;23.18;47.81;100931.95;1672848;83;21135;-84
2022/08/01 09:29:46;;;;;;;4.20;1.47;;;;;;;23.36;47.70;100932.41;1673178;85;21084;-84
2022/08/01 09:32:13;;;;;;;2.45;1.20;;;;;;;23.61;47.39;100934.90;1671849;84;21141;-84
2022/08/01 09:34:42;;;;;;;3.52;1.70;;;;;;;23.77;47.13;100931.33;1673819;85;21106;-84
2022/08/01 09:37:08;;;;;;;4.55;1.17;;;;;;;23.93;46.94;100925.55;1674718;85;21094;-84
2022/08/01 09:39:43;;;;;;;5.17;1.20;;;;;;;24.09;46.22;100929.59;1672448;85;21654;-84
2022/08/01 09:42:23;;;;;;;8.15;1.70;;;;;;;24.23;45.74;100930.53;1671879;83;21105;-84
2022/08/01 09:44:50;;;;;;;7.15;5.95;;;;;;;24.31;45.30;100927.17;1664614;84;21895;-85
2022/08/01 09:47:20;;;;;;;3.70;1.60;;;;;;;24.33;44.32;100924.44;1641549;86;21234;-85
2022/08/01 09:49:55;;;;;;;2.67;1.22;;;;;;;24.29;43.87;100924.09;1650889;85;21124;-85
2022/08/01 09:52:24;;;;;;;6.70;2.65;;;;;;;24.26;43.74;100921.91;1660400;85;21033;-85
2022/08/01 09:55:04;;;;;;;2.75;1.57;;;;;;;24.29;43.58;100920.05;1666042;84;21323;-85
2022/08/01 09:57:31;;;;;;;6.08;1.82;;;;;;;24.35;43.60;100923.93;1668227;85;21936;-85
2022/08/01 09:59:59;;;;;;;5.20;3.87;;;;;;;24.37;43.53;100926.11;1669432;84;21089;-85
2022/08/01 10:02:34;;;;;;;3.72;2.27;;;;;;;24.39;43.22;100921.56;1654261;85;21104;-85
2022/08/01 10:05:03;;;;;;;2.75;1.72;;;;;;;24.31;43.23;100931.68;1648160;85;21098;-86
2022/08/01 10:07:30;;;;;;;1.90;1.10;;;;;;;24.18;42.71;100926.64;1666174;84;21151;-86
2022/08/01 10:09:59;;;;;;;2.77;2.27;;;;;;;24.04;42.72;100928.39;1668480;84;21715;-86
2022/08/01 10:12:25;;;;;;;2.67;1.25;;;;;;;24.00;42.75;100927.16;1615893;85;21208;-86
2022/08/01 10:14:55;;;;;;;2.10;1.27;;;;;;;23.99;42.40;100928.09;1671077;84;21085;-85
2022/08/01 10:17:35;;;;;;;4.00;1.22;;;;;;;23.99;42.38;100926.28;1666044;85;21540;-95
2022/08/01 10:20:28;;;;;;;2.40;1.27;;;;;;;24.13;42.25;100927.70;1665115;86;21042;-93
2022/08/01 10:23:00;;;;;;;7.40;1.65;;;;;;;24.30;41.95;100924.52;1668070;85;21779;-93
2022/08/01 10:25:39;;;;;;;1.92;1.17;;;;;;;24.48;41.81;100917.73;1671063;85;21100;-93
2022/08/01 10:28:14;;;;;;;4.55;1.37;;;;;;;24.63;41.88;100922.67;1671201;85;21081;-93
2022/08/01 10:30:42;;;;;;;2.80;1.20;;;;;;;24.78;41.74;100919.97;1646355;85;21065;-85
2022/08/01 10:33:10;;;;;;;5.17;1.40;;;;;;;24.88;41.12;100922.77;1640748;85;21674;-84
2022/08/01 10:35:38;;;;;;;1.67;1.02;;;;;;;24.89;40.80;100924.99;1668543;84;21841;-85
2022/08/01 10:38:06;;;;;;;4.75;1.10;;;;;;;24.96;40.51;100923.88;1668309;84;21059;-85
2022/08/01 10:40:32;;;;;;;1.65;1.10;;;;;;;25.18;40.33;100929.45;1645898;85;21245;-85
2022/08/01 10:42:59;;;;;;;1.45;1.10;;;;;;;25.47;40.16;100922.23;1659556;84;21147;-85
2022/08/01 10:45:26;;;;;;;2.47;1.00;;;;;;;25.73;39.92;100920.88;1666363;84;21071;-85
2022/08/01 10:48:22;;;;;;;1.35;1.10;;;;;;;25.99;39.61;100912.33;1666267;84;21818;-85
2022/08/01 10:50:49;;;;;;;3.10;1.40;;;;;;;26.17;39.24;100916.18;1631345;84;21075;-84
2022/08/01 10:53:23;;;;;;;5.28;1.35;;;;;;;26.22;39.29;100915.52;1664066;84;21055;-85
2022/08/01 10:56:00;;;;;;;3.58;2.00;;;;;;;26.06;40.13;100917.91;1643254;84;22030;-84
2022/08/01 10:58:37;;;;;;;4.10;2.45;;;;;;;25.85;40.76;100914.16;1655069;84;21586;-85
2022/08/01 11:01:29;;;;;;;3.40;1.35;;;;;;;25.54;40.97;100921.96;1664481;84;21980;-85
2022/08/01 11:04:07;;;;;;;2.65;1.57;;;;;;;25.38;41.44;100919.40;1667145;86;21088;-84
2022/08/01 11:06:45;;;;;;;3.50;1.40;;;;;;;25.32;41.64;100916.89;1665531;84;21176;-84
2022/08/01 11:09:19;;;;;;;4.33;1.37;;;;;;;25.25;41.64;100919.40;1667765;84;21688;-85
2022/08/01 11:12:10;;;;;;;3.77;1.25;;;;;;;25.21;41.73;100918.59;1666804;85;21096;-84
2022/08/01 11:15:04;;;;;;;2.20;1.35;;;;;;;25.18;41.73;100918.67;1666132;85;22605;-85
2022/08/01 11:17:47;;;;;;;2.65;1.52;;;;;;;25.22;41.79;100917.63;1658266;84;21134;-84
2022/08/01 11:20:17;;;;;;;4.95;1.27;;;;;;;25.24;41.78;100914.93;1650742;86;21158;-84
2022/08/01 11:23:09;;;;;;;3.20;1.37;;;;;;;25.31;41.37;100915.14;1664736;84;21091;-84
2022/08/01 11:25:45;;;;;;;8.00;1.40;;;;;;;25.29;41.83;100921.92;1651934;86;21634;-84
2022/08/01 11:28:23;;;;;;;3.05;1.35;;;;;;;25.14;42.12;100920.59;1666067;85;21779;-84
2022/08/01 11:31:15;;;;;;;3.12;2.05;;;;;;;25.08;42.47;100929.35;1666635;84;21082;-84
2022/08/01 11:33:47;;;;;;;4.15;1.62;;;;;;;25.08;42.72;100922.62;1661652;84;21049;-84
2022/08/01 11:36:20;;;;;;;3.75;2.15;;;;;;;25.07;42.58;100927.58;1665218;85;21326;-84
2022/08/01 11:39:07;;;;;;;4.83;1.70;;;;;;;25.05;42.50;100927.62;1665439;85;21062;-84